EW6092 Weather Reports


time (UTC)temp
C
wind
direction
speed
KPH
gust
KPH
rain 1hr
cm
rain 24hr
cm
rain mn
cm
humidity
%
barometer
mb
20210518203704 28 93 19.3 32.2 0.00 0.00 0.00 73 1007.6
20210518203200 28 121 17.7 32.2 0.00 0.00 0.00 72 1007.7
20210518202658 28 119 16.1 32.2 0.00 0.00 0.00 73 1007.8
20210518202151 28 99 17.7 32.2 0.00 0.00 0.00 74 1008.0
20210518201648 28 133 17.7 32.2 0.00 0.00 0.00 72 1008.3
20210518201136 28 144 16.1 29.0 0.00 0.00 0.00 72 1008.4
20210518200638 29 111 17.7 27.4 0.00 0.00 0.00 72 1008.5
20210518200131 28 142 17.7 33.8 0.00 0.00 0.00 72 1008.6
20210518195628 28 138 19.3 32.2 0.00 0.00 0.00 71 1008.7
20210518195103 28 126 19.3 37.0 0.00 0.00 0.00 69 1008.8
20210518194539 28 129 19.3 37.0 0.00 0.00 0.00 71 1008.8
20210518194034 29 142 17.7 33.8 0.00 0.00 0.00 70 1008.8
20210518193530 29 117 16.1 29.0 0.00 0.00 0.00 70 1008.8
20210518193025 29 92 16.1 27.4 0.00 0.00 0.00 70 1008.8
20210518192500 29 121 16.1 30.6 0.00 0.00 0.00 69 1008.8
20210518191956 30 144 12.9 27.4 0.00 0.00 0.00 70 1008.8
20210518191429 30 178 12.9 24.1 0.00 0.00 0.00 69 1008.9
20210518190905 30 178 12.9 24.1 0.00 0.00 0.00 68 1008.9
20210518190340 30 159 14.5 22.5 0.00 0.00 0.00 68 1009.0
20210518185812 30 148 14.5 25.7 0.00 0.00 0.00 66 1009.1
20210518185310 30 184 14.5 25.7 0.00 0.00 0.00 66 1009.1
20210518184807 30 171 14.5 25.7 0.00 0.00 0.00 66 1009.2
20210518184305 30 202 16.1 25.7 0.00 0.00 0.00 65 1009.2
20210518183737 30 196 16.1 27.4 0.00 0.00 0.00 64 1009.2
20210518183234 30 178 16.1 30.6 0.00 0.00 0.00 65 1009.2
20210518182707 30 188 14.5 30.6 0.00 0.00 0.00 65 1009.2
20210518182204 30 166 16.1 32.2 0.00 0.00 0.00 65 1009.2
20210518181639 30 172 17.7 32.2 0.00 0.00 0.00 66 1009.2
20210518181112 30 180 16.1 27.4 0.00 0.00 0.00 67 1009.1
20210518180608 30 200 12.9 27.4 0.00 0.00 0.00 65 1009.1
20210518180105 30 123 9.7 19.3 0.00 0.00 0.00 66 1009.0
20210518175602 30 146 8.0 17.7 0.00 0.00 0.00 65 1009.0
20210518175035 29 154 6.4 12.9 0.00 0.00 0.00 68 1009.0
20210518174510 29 233 6.4 12.9 0.00 0.00 0.00 69 1009.0
20210518174009 29 188 6.4 12.9 0.00 0.00 0.00 68 1008.9
20210518173505 29 241 6.4 12.9 0.00 0.00 0.00 69 1008.9
20210518172947 28 146 6.4 12.9 0.00 0.00 0.00 68 1008.9
20210518172442 28 204 6.4 11.3 0.00 0.00 0.00 67 1008.9
20210518171945 28 163 6.4 6.4 0.00 0.00 0.00 68 1008.9
20210518171220 28 150 8.0 16.1 0.00 0.00 0.00 68 1008.9
20210518170718 28 130 8.0 16.1 0.00 0.00 0.00 69 1008.9
20210518170150 28 144 6.4 12.9 0.00 0.00 0.00 67 1008.7
20210518165648 28 169 4.8 11.3 0.00 0.00 0.00 68 1008.8
20210518165122 27 123 6.4 12.9 0.00 0.00 0.00 69 1008.8
20210518164618 27 139 6.4 12.9 0.00 0.00 0.00 70 1008.8
20210518164053 27 103 3.2 6.4 0.00 0.00 0.00 71 1008.7
20210518163529 27 103 3.2 6.4 0.00 0.00 0.00 73 1008.7
20210518163029 27 103 3.2 9.7 0.00 0.00 0.00 71 1008.7
20210518162527 27 103 4.8 9.7 0.00 0.00 0.00 73 1008.8
20210518162008 27 36 4.8 8.0 0.00 0.00 0.00 71 1008.7
20210518161505 27 34 6.4 14.5 0.00 0.00 0.00 72 1008.6
20210518160938 27 30 8.0 17.7 0.00 0.00 0.00 73 1008.5
20210518160414 27 55 6.4 14.5 0.00 0.00 0.00 72 1008.4
20210518155913 27 73 6.4 12.9 0.00 0.00 0.00 74 1008.3
20210518155354 27 74 4.8 14.5 0.00 0.00 0.00 74 1008.1
20210518154854 26 98 4.8 11.3 0.00 0.00 0.00 77 1008.0
20210518154334 26 51 6.4 11.3 0.00 0.00 0.00 76 1007.9
20210518153834 26 66 6.4 11.3 0.00 0.00 0.00 76 1007.8
20210518153316 25 355 6.4 12.9 0.00 0.00 0.00 77 1007.6
20210518152815 25 42 4.8 12.9 0.00 0.00 0.00 79 1007.6
20210518152255 25 14 4.8 9.7 0.00 0.00 0.00 82 1007.8
20210518151756 24 5 4.8 12.9 0.00 0.00 0.00 83 1007.9
20210518151234 24 5 4.8 12.9 0.00 0.00 0.00 83 1007.9
20210518150710 24 327 6.4 14.5 0.00 0.00 0.00 83 1008.1
20210518150153 24 329 6.4 14.5 0.00 0.00 0.00 83 1008.5
20210518145653 23 342 6.4 19.3 0.00 0.00 0.00 83 1007.8
20210518145134 23 65 8.0 19.3 0.00 0.00 0.00 84 1007.2
20210518144609 23 68 8.0 17.7 0.00 0.00 0.00 83 1007.1
20210518144038 23 59 9.7 19.3 0.00 0.00 0.00 83 1006.9
20210518143513 23 71 9.7 19.3 0.00 0.00 0.00 82 1006.7
20210518142947 23 83 9.7 17.7 0.00 0.00 0.00 82 1007.1
20210518142423 23 111 9.7 20.9 0.00 0.00 0.00 82 1007.2
20210518141900 22 129 9.7 20.9 0.00 0.00 0.00 83 1007.1
20210518141337 22 90 11.3 20.9 0.00 0.00 0.00 84 1007.0
20210518140811 22 117 12.9 20.9 0.00 0.00 0.00 85 1006.8
20210518140308 22 123 16.1 32.2 0.00 0.00 0.00 86 1006.6
20210518135739 22 106 19.3 33.8 0.00 0.00 0.00 87 1006.2
20210518135236 22 92 19.3 37.0 0.00 0.00 0.00 88 1005.1
20210518134706 22 90 16.1 30.6 0.00 0.00 0.00 89 1005.7
20210518134141 22 101 12.9 20.9 0.00 0.00 0.00 89 1006.8
20210518133615 22 113 9.7 17.7 0.00 0.00 0.00 90 1007.4
20210518133048 21 98 8.0 14.5 0.00 0.00 0.00 91 1007.7
20210518132522 21 107 8.0 12.9 0.00 0.00 0.00 91 1007.7
20210518132007 21 81 4.8 9.7 0.00 0.00 0.00 90 1007.9
20210518131506 21 58 1.6 9.7 0.00 0.00 0.00 90 1008.1
20210518131006 21 51 1.6 4.8 0.00 0.00 0.00 91 1008.3
20210518130504 21 51 3.2 4.8 0.00 0.00 0.00 92 1008.3
20210518130000 21 51 1.6 9.7 0.00 0.00 0.00 92 1008.4
20210518125434 21 51 3.2 9.7 0.00 0.00 0.00 92 1008.6
20210518124931 21 51 4.8 11.3 0.00 0.00 0.00 92 1008.8
20210518124416 21 78 6.4 12.9 0.00 0.00 0.00 92 1008.9
20210518123850 21 9 3.2 14.5 0.00 0.00 0.00 92 1007.5
20210518123348 21 76 4.8 14.5 0.00 0.00 0.00 92 1007.8
20210518122821 21 76 8.0 14.5 0.00 0.00 0.00 92 1007.9
20210518122316 21 92 8.0 14.5 0.00 0.00 0.00 91 1007.7
20210518121806 21 98 8.0 12.9 0.00 0.00 0.00 91 1007.8
20210518121305 21 77 4.8 11.3 0.00 0.00 0.00 91 1008.1
20210518120800 21 95 3.2 11.3 0.00 0.00 0.00 91 1008.5
20210518120256 21 94 1.6 11.3 0.00 0.00 0.00 91 1008.7
20210518115730 21 94 4.8 9.7 0.00 0.00 0.00 90 1008.8
20210518115206 21 96 4.8 11.3 0.00 0.00 0.00 90 1009.3
20210518114639 21 90 3.2 6.4 0.00 0.00 0.00 89 1009.5
20210518114114 21 90 4.8 11.3 0.00 0.00 0.00 89 1009.3
20210518113608 21 94 6.4 16.1 0.00 0.00 0.00 88 1009.4
20210518113043 21 124 8.0 14.5 0.00 0.00 0.00 88 1009.5
20210518112541 21 153 11.3 20.9 0.00 0.00 0.00 87 1009.6
20210518112034 21 159 12.9 24.1 0.00 0.00 0.00 87 1009.6
20210518111532 22 139 16.1 22.5 0.00 0.00 0.00 86 1009.4
20210518111006 22 146 14.5 24.1 0.00 0.00 0.00 85 1009.3
20210518110439 22 146 11.3 29.0 0.00 0.00 0.00 85 1009.3
20210518105913 22 145 12.9 29.0 0.00 0.00 0.00 85 1009.3
20210518105409 22 158 19.3 30.6 0.00 0.00 0.00 84 1009.3
20210518104842 22 152 14.5 30.6 0.00 0.00 0.00 84 1009.3
20210518104340 23 92 9.7 20.9 0.00 0.00 0.00 86 1009.6
20210518103813 23 134 8.0 19.3 0.00 0.00 0.00 88 1009.5
20210518103310 23 114 1.6 12.9 0.00 0.00 0.00 91 1009.1
20210518102743 23 87 1.6 4.8 0.00 0.00 0.00 91 1009.2
20210518102239 23 87 6.4 22.5 0.00 0.00 0.00 91 1009.4
20210518101713 23 87 12.9 22.5 0.00 0.00 0.00 90 1008.4
20210518101148 23 80 12.9 24.1 0.00 0.00 0.00 90 1008.3
20210518100622 23 94 12.9 25.7 0.00 0.00 0.00 90 1008.4
20210518100118 23 119 12.9 25.7 0.00 0.00 0.00 90 1008.5
20210518095552 23 103 11.3 25.7 0.00 0.00 0.00 90 1008.5
20210518095051 23 94 12.9 25.7 0.00 0.00 0.00 89 1008.6
20210518094544 23 88 12.9 29.0 0.00 0.00 0.00 89 1008.3
20210518094019 23 128 14.5 29.0 0.00 0.00 0.00 89 1007.9
20210518093515 23 78 17.7 29.0 0.00 0.00 0.00 89 1007.7
20210518092948 23 93 20.9 41.8 0.00 0.00 0.00 89 1007.4
20210518092447 23 144 20.9 41.8 0.00 0.00 0.00 89 1007.1
20210518091921 23 150 22.5 45.1 0.00 0.00 0.00 89 1006.8
20210518091417 23 144 22.5 45.1 0.00 0.00 0.00 89 1006.7
20210518090850 23 128 20.9 38.6 0.00 0.00 0.00 89 1007.0
20210518090326 23 116 19.3 30.6 0.00 0.00 0.00 89 1007.3
20210518085819 23 93 17.7 30.6 0.00 0.00 0.00 90 1007.5
20210518085317 22 167 17.7 27.4 0.00 0.00 0.00 90 1007.6
20210518084816 22 118 16.1 27.4 0.00 0.00 0.00 90 1007.6
20210518084255 22 119 17.7 29.0 0.00 0.00 0.00 91 1007.6
20210518083755 22 123 16.1 29.0 0.00 0.00 0.00 91 1007.6
20210518083255 22 107 11.3 22.5 0.00 0.00 0.00 91 1008.0
20210518082725 22 115 8.0 17.7 0.00 0.00 0.00 91 1008.6
20210518082159 22 117 6.4 12.9 0.00 0.00 0.00 91 1009.0
20210518081641 22 106 4.8 11.3 0.00 0.00 0.00 91 1008.9
20210518081139 22 88 4.8 9.7 0.00 0.00 0.00 90 1009.0
20210518080638 22 87 1.6 9.7 0.00 0.00 0.00 90 1009.1
20210518080136 22 116 0.0 0.0 0.00 0.00 0.00 89 1009.3
20210518075634 22 116 0.0 0.0 0.00 0.00 0.00 89 1009.5
20210518075114 22 116 0.0 0.0 0.00 0.00 0.00 88 1009.7
20210518074615 22 116 0.0 0.0 0.00 0.00 0.00 88 1009.8
20210518074059 22 116 0.0 0.0 0.00 0.00 0.00 88 1009.7
20210518073557 22 116 0.0 0.0 0.00 0.00 0.00 88 1009.7
20210518073039 22 116 0.0 0.0 0.00 0.00 0.00 88 1009.7
20210518072539 22 116 0.0 0.0 0.00 0.00 0.00 88 1009.7
20210518072026 22 116 0.0 0.0 0.00 0.00 0.00 87 1009.7
20210518071526 22 116 0.0 0.0 0.00 0.00 0.00 87 1009.6
20210518071023 22 116 0.0 0.0 0.00 0.00 0.00 87 1009.4
20210518070523 22 116 0.0 0.0 0.00 0.00 0.00 87 1009.2
20210518070000 22 115 0.0 6.4 0.00 0.00 0.00 87 1009.1
20210518065459 22 115 3.2 12.9 0.00 0.00 0.00 87 1008.7
20210518064939 22 120 6.4 16.1 0.00 0.00 0.00 87 1008.6
20210518064440 22 116 8.0 14.5 0.00 0.00 0.00 88 1008.6
20210518063937 22 160 8.0 16.1 0.00 0.00 0.00 88 1008.6
20210518063410 22 121 8.0 14.5 0.00 0.00 0.00 88 1008.6
20210518062900 22 119 8.0 16.1 0.00 0.00 0.00 88 1008.8
20210518062403 22 162 8.0 16.1 0.00 0.00 0.00 89 1009.2
20210518061837 22 146 6.4 14.5 0.00 0.00 0.00 89 1009.4
20210518061311 22 151 4.8 11.3 0.00 0.00 0.00 89 1009.6
20210518060745 22 151 4.8 8.0 0.00 0.00 0.00 89 1010.0
20210518060240 22 151 3.2 9.7 0.00 0.00 0.00 89 1009.9
20210518055713 22 151 3.2 9.7 0.00 0.00 0.00 89 1009.7
20210518055150 22 151 4.8 9.7 0.00 0.00 0.00 89 1009.6
20210518054645 22 151 4.8 9.7 0.00 0.00 0.00 89 1009.6
20210518054143 22 151 4.8 14.5 0.00 0.00 0.00 89 1009.6
20210518053640 21 151 6.4 14.5 0.00 0.00 0.00 90 1009.6
20210518053137 21 128 8.0 16.1 0.00 0.00 0.00 90 1009.3
20210518052630 21 144 9.7 16.1 0.00 0.00 0.00 90 1009.5
20210518052127 21 122 8.0 16.1 0.00 0.00 0.00 90 1009.6
20210518051604 21 115 6.4 14.5 0.00 0.00 0.00 90 1009.6
20210518051100 21 126 6.4 17.7 0.00 0.00 0.00 90 1009.8
20210518050529 21 119 6.4 12.9 0.00 0.00 0.00 90 1009.8
20210518050018 21 130 6.4 12.9 0.00 0.00 0.00 90 1009.8
20210518045519 21 136 6.4 12.9 0.00 0.00 0.00 90 1010.1
20210518044959 21 153 8.0 12.9 0.00 0.00 0.00 90 1010.3
20210518044457 21 155 6.4 11.3 0.00 0.00 0.00 90 1010.3
20210518043932 21 156 6.4 12.9 0.00 0.00 0.00 90 1010.3
20210518043429 21 142 6.4 12.9 0.00 0.00 0.00 90 1010.4
20210518042920 21 138 6.4 12.9 0.00 0.00 0.00 90 1010.2
20210518042416 21 148 6.4 12.9 0.00 0.00 0.00 90 1010.3
20210518041913 21 146 4.8 11.3 0.00 0.00 0.00 90 1010.3
20210518041415 21 125 3.2 12.9 0.00 0.00 0.00 90 1010.3
20210518040850 21 124 4.8 12.9 0.00 0.00 0.00 89 1010.2
20210518040352 21 124 6.4 12.9 0.00 0.00 0.00 89 1010.1
20210518035849 21 130 6.4 16.1 0.00 0.00 0.00 89 1010.0
20210518035329 21 154 6.4 16.1 0.00 0.00 0.00 89 1010.2
20210518034829 21 123 8.0 20.9 0.00 0.00 0.00 89 1010.1
20210518034314 21 110 9.7 20.9 0.00 0.00 0.00 89 1010.0
20210518033751 21 128 8.0 17.7 0.00 0.00 0.00 89 1009.8
20210518033248 20 123 8.0 17.7 0.00 0.00 0.00 89 1009.9
20210518032750 20 112 8.0 14.5 0.00 0.00 0.00 89 1009.9
20210518032246 21 121 9.7 14.5 0.00 0.00 0.00 89 1009.7
20210518031725 20 139 9.7 19.3 0.00 0.00 0.00 90 1009.7
20210518031221 20 134 9.7 22.5 0.00 0.00 0.00 90 1009.7
20210518030659 20 88 11.3 22.5 0.00 0.00 0.00 90 1009.8
20210518030130 20 104 11.3 20.9 0.00 0.00 0.00 90 1009.6
20210518025605 20 132 9.7 24.1 0.00 0.00 0.00 90 1009.7
20210518025053 20 125 9.7 19.3 0.00 0.00 0.00 91 1009.6
20210518024553 20 115 9.7 20.9 0.00 0.00 0.00 91 1009.8
20210518024051 20 96 9.7 20.9 0.00 0.00 0.00 91 1009.7
20210518023553 20 132 9.7 19.3 0.00 0.00 0.00 91 1009.8
20210518023029 20 80 11.3 24.1 0.00 0.00 0.00 91 1009.6
20210518022502 20 116 11.3 24.1 0.00 0.00 0.00 91 1009.5
20210518021943 20 65 11.3 20.9 0.00 0.00 0.00 91 1009.6
20210518021416 20 89 12.9 27.4 0.00 0.00 0.00 91 1009.6
20210518020915 21 96 14.5 29.0 0.00 0.00 0.00 90 1009.5
20210518020411 21 86 16.1 29.0 0.00 0.00 0.00 90 1009.5
20210518015845 21 67 16.1 29.0 0.00 0.00 0.00 90 1009.6
20210518015344 21 79 14.5 29.0 0.00 0.00 0.00 89 1009.6
20210518014839 21 69 14.5 25.7 0.00 0.00 0.00 89 1009.6
20210518014313 21 67 14.5 29.0 0.00 0.00 0.00 89 1009.6
20210518013808 21 78 12.9 29.0 0.00 0.00 0.00 89 1009.6
20210518013243 21 92 12.9 30.6 0.00 0.00 0.00 88 1009.7
20210518012739 22 80 14.5 30.6 0.00 0.00 0.00 88 1009.7
20210518012213 22 70 16.1 30.6 0.00 0.00 0.00 88 1009.6
20210518011646 22 92 17.7 35.4 0.00 0.00 0.00 88 1009.7
20210518011143 22 104 19.3 37.0 0.00 0.00 0.00 87 1009.6
20210518010633 22 116 19.3 37.0 0.00 0.00 0.00 87 1009.6
20210518010128 22 88 19.3 45.1 0.00 0.00 0.00 87 1009.5
20210518005604 22 89 19.3 45.1 0.00 0.00 0.00 87 1009.6
20210518005100 22 117 20.9 37.0 0.00 0.00 0.00 87 1009.6
20210518004556 22 71 20.9 35.4 0.00 0.00 0.00 88 1009.5
20210518004030 22 98 20.9 43.5 0.00 0.00 0.00 88 1009.6
20210518003527 22 62 20.9 43.5 0.00 0.00 0.00 87 1009.6
20210518003001 22 71 22.5 45.1 0.00 0.00 0.00 87 1009.4
20210518002457 22 68 22.5 45.1 0.00 0.00 0.00 86 1009.4
20210518001930 23 86 19.3 40.2 0.00 0.00 0.00 88 1009.6
20210518001428 23 54 16.1 29.0 0.00 0.00 0.00 88 1009.4
20210518000901 23 107 16.1 29.0 0.00 0.00 0.00 89 1009.3
20210518000335 22 86 16.1 29.0 0.00 0.00 0.00 89 1009.2
20210517235832 22 46 17.7 33.8 0.00 0.00 0.00 88 1009.3
20210517235332 22 37 20.9 40.2 0.00 0.00 0.00 88 1009.6
20210517234832 23 75 17.7 40.2 0.00 0.00 0.00 88 1009.2
20210517234330 23 101 14.5 29.0 0.00 0.00 0.00 89 1009.2
20210517233835 22 76 12.9 24.1 0.00 0.00 0.00 89 1009.4
20210517233306 23 44 12.9 24.1 0.00 0.00 0.00 87 1009.9
20210517232741 23 89 14.5 27.4 0.00 0.00 0.00 86 1010.2
20210517232238 23 13 16.1 29.0 0.00 0.00 0.00 85 1010.4
20210517231710 23 9 11.3 30.6 0.00 0.00 0.00 83 1010.6
20210517231147 23 26 14.5 30.6 0.00 0.00 0.00 81 1010.7
20210517230641 24 49 20.9 30.6 0.00 0.00 0.00 79 1010.8
20210517230114 26 13 12.9 30.6 0.00 0.00 0.00 74 1010.7
20210517225548 27 355 8.0 14.5 0.00 0.00 0.00 82 1010.5
20210517225044 27 84 9.7 16.1 0.00 0.00 0.00 82 1010.3
20210517224518 27 100 9.7 19.3 0.00 0.00 0.00 83 1010.2
20210517224015 27 107 11.3 19.3 0.00 0.00 0.00 82 1010.1
20210517223507 27 115 12.9 20.9 0.00 0.00 0.00 82 1010.0
20210517223004 28 117 12.9 22.5 0.00 0.00 0.00 81 1009.8
20210517222501 28 154 11.3 22.5 0.00 0.00 0.00 80 1009.8
20210517221935 28 152 11.3 25.7 0.00 0.00 0.00 79 1009.8
20210517221431 28 146 14.5 25.7 0.00 0.00 0.00 80 1009.7
20210517220905 28 139 14.5 27.4 0.00 0.00 0.00 80 1009.6
20210517220401 28 173 17.7 27.4 0.00 0.00 0.00 79 1009.7
20210517215835 28 145 16.1 30.6 0.00 0.00 0.00 78 1009.6
20210517215333 28 154 12.9 30.6 0.00 0.00 0.00 77 1009.5
20210517214816 28 115 14.5 24.1 0.00 0.00 0.00 78 1009.6
20210517214315 28 80 14.5 29.0 0.00 0.00 0.00 79 1009.5
20210517213811 28 118 16.1 29.0 0.00 0.00 0.00 80 1009.5
20210517213312 28 133 17.7 32.2 0.00 0.00 0.00 79 1009.5
20210517212808 28 128 19.3 32.2 0.00 0.00 0.00 81 1009.5
20210517212307 28 157 19.3 32.2 0.00 0.00 0.00 81 1009.5
20210517211806 28 165 17.7 32.2 0.00 0.00 0.00 82 1009.3
20210517211307 28 141 16.1 27.4 0.00 0.00 0.00 82 1009.0
20210517210805 28 161 14.5 25.7 0.00 0.00 0.00 82 1008.9
20210517210304 28 123 17.7 30.6 0.00 0.00 0.00 82 1008.6
20210517205747 28 155 22.5 41.8 0.00 0.00 0.00 81 1008.5
20210517205245 28 143 24.1 41.8 0.00 0.00 0.00 81 1008.5
20210517204743 28 157 22.5 43.5 0.00 0.00 0.00 81 1008.5
20210517204240 28 169 22.5 43.5 0.00 0.00 0.00 80 1008.5